CheckWX is a tool to help pilots better visualize weather data.  It is not intended as a substitute for an official pre-flight weather briefing.

12:43:44 UTC

KBRL TAF
Southeast Iowa Regional Airport
Burlington, Iowa, USA
KBRL 201128Z 2012/2112 34010G18KT P6SM OVC018 FM201800 36007KT P6SM SCT030 FM210100 06007KT P6SM BKN100 FM210800 09015G22KT P6SM VCSH BKN030 OVC045

May-20@
12:00 UTC

May-20 @ 12:00 UTC

May-20@
18:00 UTC

May-20 @ 18:00 UTC

KBRL 201128Z 2012/2112 34010G18KT P6SM OVC018
Wind
  • 340° at 10 KTS
  • {Gusting to 18 KTS
Cloud Levels
  • Overcast at 1,800' AGL

May-20@
18:00 UTC

May-20 @ 18:00 UTC

May-21@
01:00 UTC

May-21 @ 01:00 UTC

FM201800 36007KT P6SM SCT030

From

From Standard forecast or significant change

Wind
  • 360° at 7 KTS
Cloud Levels
  • Scattered at 3,000' AGL

May-21@
01:00 UTC

May-21 @ 01:00 UTC

May-21@
08:00 UTC

May-21 @ 08:00 UTC

FM210100 06007KT P6SM BKN100

From

From Standard forecast or significant change

Wind
  • 060° at 7 KTS
Cloud Levels
  • Broken at 10,000' AGL

May-21@
08:00 UTC

May-21 @ 08:00 UTC

May-21@
12:00 UTC

May-21 @ 12:00 UTC

FM210800 09015G22KT P6SM VCSH BKN030 OVC045

From

From Standard forecast or significant change

Wind
  • 090° at 15 KTS
  • {Gusting to 22 KTS
Cloud Levels
  • Broken at 3,000' AGL
  • Overcast at 4,500' AGL